createdAt,value
2023-04-08T00:00:34.236Z,7.10
2023-04-08T00:03:06.112Z,5.80
2023-04-08T00:05:37.539Z,5.90
2023-04-08T00:08:09.304Z,5.90
2023-04-08T00:10:41.505Z,6.20
2023-04-08T00:13:13.416Z,6.00
2023-04-08T00:15:45.694Z,5.40
2023-04-08T00:18:18.168Z,6.80
2023-04-08T00:20:49.349Z,7.20
2023-04-08T00:23:21.506Z,8.10
2023-04-08T00:25:52.556Z,7.30
2023-04-08T00:28:23.969Z,6.20
2023-04-08T00:30:55.863Z,6.20
2023-04-08T00:33:27.161Z,6.50
2023-04-08T00:35:59.120Z,7.20
2023-04-08T00:38:31.097Z,5.60
2023-04-08T00:41:02.154Z,7.90
2023-04-08T00:43:33.744Z,5.60
2023-04-08T00:46:05.092Z,7.30
2023-04-08T00:48:36.839Z,6.10
2023-04-08T00:51:09.155Z,6.80
2023-04-08T00:53:40.614Z,5.60
2023-04-08T00:56:12.133Z,5.40
2023-04-08T00:58:43.650Z,6.10
2023-04-08T01:01:23.314Z,5.90
2023-04-08T01:04:07.412Z,6.90
2023-04-08T01:06:43.461Z,5.80
2023-04-08T01:09:18.290Z,6.90
2023-04-08T01:11:53.778Z,6.90
2023-04-08T01:14:28.081Z,6.40
2023-04-08T01:17:02.145Z,6.90
2023-04-08T01:19:37.252Z,7.50
2023-04-08T01:22:17.042Z,7.60
2023-04-08T01:24:50.895Z,6.30
2023-04-08T01:27:22.644Z,8.10
2023-04-08T01:29:54.698Z,8.80
2023-04-08T01:32:27.318Z,8.10
2023-04-08T01:35:00.450Z,8.10
2023-04-08T01:37:34.360Z,7.20
2023-04-08T01:40:07.436Z,6.60
2023-04-08T01:42:41.810Z,8.20
2023-04-08T01:45:14.298Z,7.60
2023-04-08T01:47:48.452Z,6.70
2023-04-08T01:50:21.192Z,7.70
2023-04-08T01:52:53.817Z,6.30
2023-04-08T01:55:25.984Z,6.40
2023-04-08T01:58:01.342Z,6.00
2023-04-08T02:00:36.017Z,6.10
2023-04-08T02:03:09.889Z,6.30
2023-04-08T02:05:42.122Z,6.50
2023-04-08T02:08:14.646Z,7.50
2023-04-08T02:10:45.794Z,7.70
2023-04-08T02:13:16.913Z,6.30
2023-04-08T02:15:54.332Z,6.50
2023-04-08T02:18:28.798Z,6.60
2023-04-08T02:21:06.029Z,6.50
2023-04-08T02:23:42.926Z,6.80
2023-04-08T02:26:17.955Z,7.10
2023-04-08T02:28:53.528Z,7.20
2023-04-08T02:31:27.956Z,8.50
2023-04-08T02:33:59.874Z,7.80
2023-04-08T02:36:35.653Z,8.40
2023-04-08T02:39:08.339Z,8.90
2023-04-08T02:41:39.225Z,9.00
2023-04-08T02:44:10.679Z,9.20
2023-04-08T02:46:44.667Z,8.10
2023-04-08T02:49:15.891Z,9.20
2023-04-08T02:51:47.098Z,9.10
2023-04-08T02:54:18.469Z,10.10
2023-04-08T02:56:49.803Z,12.00
2023-04-08T02:59:21.294Z,10.20
2023-04-08T03:01:52.433Z,10.80
2023-04-08T03:04:23.704Z,11.10
2023-04-08T03:06:54.728Z,10.70
2023-04-08T03:09:26.389Z,10.00
2023-04-08T03:11:57.646Z,11.10
2023-04-08T03:14:28.949Z,11.00
2023-04-08T03:17:00.094Z,10.40
2023-04-08T03:19:31.382Z,10.90
2023-04-08T03:22:02.524Z,10.00
2023-04-08T03:24:33.565Z,11.20
2023-04-08T03:27:04.803Z,10.40
2023-04-08T03:29:36.046Z,11.50
2023-04-08T03:32:07.817Z,10.90
2023-04-08T03:34:38.942Z,11.30
2023-04-08T03:37:10.387Z,10.70
2023-04-08T03:39:41.863Z,11.50
2023-04-08T03:42:13.838Z,11.40
2023-04-08T03:44:45.076Z,11.50
2023-04-08T03:47:16.221Z,10.20
2023-04-08T03:49:47.155Z,11.60
2023-04-08T03:52:18.296Z,11.80
2023-04-08T03:54:49.472Z,13.30
2023-04-08T03:57:20.409Z,12.30
2023-04-08T03:59:51.654Z,12.50
2023-04-08T04:02:23.185Z,14.90
2023-04-08T04:04:54.910Z,13.10
2023-04-08T04:07:26.275Z,14.90
2023-04-08T04:09:57.573Z,15.00
2023-04-08T04:12:28.754Z,14.10
2023-04-08T04:15:00.420Z,16.10
2023-04-08T04:17:31.824Z,12.50
2023-04-08T04:20:04.894Z,14.20
2023-04-08T04:22:36.132Z,13.30
2023-04-08T04:25:08.310Z,11.60
2023-04-08T04:27:39.719Z,12.40
2023-04-08T04:30:15.803Z,9.90
2023-04-08T04:32:47.256Z,10.60
2023-04-08T04:35:18.795Z,11.30
2023-04-08T04:37:52.037Z,10.00
2023-04-08T04:40:23.209Z,10.60
2023-04-08T04:42:54.480Z,11.50
2023-04-08T04:45:25.881Z,10.20
2023-04-08T04:47:56.911Z,10.60
2023-04-08T04:50:27.925Z,9.40
2023-04-08T04:52:59.029Z,7.80
2023-04-08T04:55:30.090Z,7.70
2023-04-08T04:58:01.906Z,6.50
2023-04-08T05:00:33.167Z,6.80
2023-04-08T05:03:05.055Z,7.90
2023-04-08T05:05:36.384Z,9.20
2023-04-08T05:08:08.639Z,9.70
2023-04-08T05:10:41.778Z,10.10
2023-04-08T05:13:13.004Z,9.20
2023-04-08T05:15:43.916Z,8.10
2023-04-08T05:18:15.690Z,9.90
2023-04-08T05:20:46.786Z,9.80
2023-04-08T05:23:17.866Z,9.60
2023-04-08T05:25:49.583Z,9.00
2023-04-08T05:28:21.038Z,9.20
2023-04-08T05:30:53.724Z,9.10
2023-04-08T05:33:26.692Z,7.90
2023-04-08T05:35:57.879Z,8.90
2023-04-08T05:38:29.145Z,9.20
2023-04-08T05:41:00.400Z,8.40
2023-04-08T05:43:31.720Z,10.20
2023-04-08T05:46:06.923Z,8.60
2023-04-08T05:50:39.280Z,9.20
2023-04-08T05:53:10.423Z,9.10
2023-04-08T05:55:41.836Z,8.90
2023-04-08T05:58:13.080Z,7.50
2023-04-08T06:00:44.545Z,9.30
2023-04-08T06:03:18.128Z,8.90
2023-04-08T06:05:51.275Z,9.10
2023-04-08T06:08:22.789Z,8.00
2023-04-08T06:10:54.177Z,9.10
2023-04-08T06:13:26.185Z,7.20
2023-04-08T06:15:57.400Z,7.50
2023-04-08T06:18:28.761Z,7.60
2023-04-08T06:21:00.116Z,7.80
2023-04-08T06:23:31.579Z,7.90
2023-04-08T06:26:03.214Z,9.80
2023-04-08T06:28:34.840Z,11.10
2023-04-08T06:31:06.429Z,8.40
2023-04-08T06:33:37.242Z,8.20
2023-04-08T06:36:09.972Z,7.30
2023-04-08T06:38:41.498Z,7.10
2023-04-08T06:41:12.761Z,7.90
2023-04-08T06:43:44.112Z,6.70
2023-04-08T06:46:15.667Z,6.00
2023-04-08T06:48:47.594Z,6.40
2023-04-08T06:51:18.630Z,6.80
2023-04-08T06:53:49.844Z,7.10
2023-04-08T06:56:22.678Z,6.30
2023-04-08T06:58:53.830Z,7.30
2023-04-08T07:01:25.784Z,6.40
2023-04-08T07:03:57.960Z,8.80
2023-04-08T07:06:29.086Z,8.00
2023-04-08T07:09:00.147Z,8.20
2023-04-08T07:11:31.895Z,7.50
2023-04-08T07:14:03.315Z,7.00
2023-04-08T07:16:34.755Z,7.50
2023-04-08T07:19:05.758Z,6.10
2023-04-08T07:21:37.285Z,7.20
2023-04-08T07:24:09.102Z,6.70
2023-04-08T07:26:41.086Z,7.10
2023-04-08T07:29:12.348Z,8.50
2023-04-08T07:31:44.433Z,7.40
2023-04-08T07:34:15.718Z,9.30
2023-04-08T07:36:47.185Z,9.00
2023-04-08T07:39:18.622Z,8.10
2023-04-08T07:41:50.197Z,8.60
2023-04-08T07:44:21.564Z,8.60
2023-04-08T07:46:52.608Z,10.00
2023-04-08T07:49:24.287Z,9.30
2023-04-08T07:51:56.001Z,9.00
2023-04-08T07:54:27.660Z,7.50
2023-04-08T07:56:59.971Z,8.70
2023-04-08T07:59:34.018Z,8.90
2023-04-08T08:02:05.182Z,9.20
2023-04-08T08:04:36.305Z,9.40
2023-04-08T08:07:08.294Z,7.70
2023-04-08T08:09:39.979Z,11.40
2023-04-08T08:12:11.927Z,10.00
2023-04-08T08:14:43.111Z,7.60
2023-04-08T08:17:14.517Z,8.60
2023-04-08T08:19:46.224Z,8.80
2023-04-08T08:22:17.239Z,7.60
2023-04-08T08:24:48.474Z,13.20
2023-04-08T08:27:19.900Z,11.30
2023-04-08T08:29:51.202Z,9.00
2023-04-08T08:32:22.590Z,8.60
2023-04-08T08:34:53.734Z,11.60
2023-04-08T08:37:24.892Z,8.70
2023-04-08T08:39:56.697Z,9.80
2023-04-08T08:42:28.960Z,14.90
2023-04-08T08:45:04.945Z,9.80
2023-04-08T08:47:36.464Z,7.90
2023-04-08T08:50:09.288Z,8.70
2023-04-08T08:52:41.030Z,7.50
2023-04-08T08:55:32.604Z,8.40
2023-04-08T08:58:04.692Z,8.30
2023-04-08T09:00:37.157Z,7.40
2023-04-08T09:03:21.003Z,8.50
2023-04-08T09:05:54.154Z,8.10
2023-04-08T09:08:30.327Z,8.00
2023-04-08T09:11:15.768Z,8.00
2023-04-08T09:13:47.950Z,13.90
2023-04-08T09:16:23.293Z,16.40
2023-04-08T09:18:55.172Z,9.90
2023-04-08T09:21:27.622Z,9.40
2023-04-08T09:23:58.969Z,8.90
2023-04-08T09:26:30.129Z,9.10
2023-04-08T09:29:18.332Z,8.10
2023-04-08T09:31:59.423Z,8.60
2023-04-08T09:34:34.540Z,8.80
2023-04-08T09:37:06.041Z,10.40
2023-04-08T09:39:37.289Z,9.10
2023-04-08T09:42:12.622Z,9.40
2023-04-08T09:44:46.868Z,9.30
2023-04-08T09:47:25.006Z,8.30
2023-04-08T09:50:03.598Z,8.60
2023-04-08T09:52:41.598Z,8.80
2023-04-08T09:55:14.538Z,8.50
2023-04-08T09:57:51.922Z,9.60
2023-04-08T10:00:26.875Z,8.00
2023-04-08T10:03:08.540Z,8.40
2023-04-08T10:05:42.734Z,7.50
2023-04-08T10:08:14.415Z,9.00
2023-04-08T10:10:47.831Z,8.50
2023-04-08T10:13:20.010Z,9.50
2023-04-08T10:15:51.439Z,7.10
2023-04-08T10:18:35.389Z,7.70
2023-04-08T10:21:07.088Z,9.10
2023-04-08T10:23:59.862Z,7.90
2023-04-08T10:26:36.868Z,6.70
2023-04-08T10:29:36.169Z,8.10
2023-04-08T10:32:08.103Z,8.00
2023-04-08T10:34:54.877Z,7.20
2023-04-08T10:37:26.448Z,8.50
2023-04-08T10:39:58.970Z,7.60
2023-04-08T10:42:33.497Z,7.60
2023-04-08T10:45:05.651Z,9.10
2023-04-08T10:47:37.122Z,8.50
2023-04-08T10:50:18.594Z,8.80
2023-04-08T10:52:53.820Z,9.20
2023-04-08T10:55:27.711Z,8.40
2023-04-08T10:58:08.789Z,8.20
2023-04-08T11:00:41.255Z,8.30
2023-04-08T11:03:15.691Z,7.20
2023-04-08T11:05:47.141Z,8.50
2023-04-08T11:08:20.894Z,8.10
2023-04-08T11:10:53.348Z,8.60
2023-04-08T11:13:25.503Z,9.70
2023-04-08T11:15:57.937Z,8.50
2023-04-08T11:18:29.782Z,10.20
2023-04-08T11:21:01.958Z,6.80
2023-04-08T11:23:33.444Z,7.30
2023-04-08T11:26:06.348Z,7.70
2023-04-08T11:28:38.863Z,8.60
2023-04-08T11:31:10.464Z,10.80
2023-04-08T11:33:48.887Z,10.70
2023-04-08T11:36:21.802Z,10.30
2023-04-08T11:38:54.803Z,8.60
2023-04-08T11:41:26.724Z,11.00
2023-04-08T11:43:58.985Z,10.40
2023-04-08T11:46:30.354Z,9.90
2023-04-08T11:49:04.036Z,8.50
2023-04-08T11:51:35.846Z,9.90
2023-04-08T11:54:27.346Z,11.60
2023-04-08T11:56:59.072Z,11.80
2023-04-08T11:59:30.520Z,9.50
2023-04-08T12:02:02.161Z,10.00
2023-04-08T12:04:34.205Z,9.30
2023-04-08T12:07:05.693Z,10.40
2023-04-08T12:09:36.817Z,9.10
2023-04-08T12:12:10.606Z,7.70
2023-04-08T12:14:41.604Z,6.30
2023-04-08T12:17:12.696Z,6.80
2023-04-08T12:19:44.105Z,7.50
2023-04-08T12:22:15.125Z,6.10
2023-04-08T12:24:46.315Z,6.50
2023-04-08T12:27:17.390Z,8.10
2023-04-08T12:29:49.883Z,5.80
2023-04-08T12:32:21.200Z,8.30
2023-04-08T12:34:52.465Z,6.60
2023-04-08T12:37:23.947Z,7.40
2023-04-08T12:39:55.147Z,6.30
2023-04-08T12:42:26.513Z,7.00
2023-04-08T12:44:57.922Z,6.20
2023-04-08T12:47:29.194Z,6.80
2023-04-08T12:50:00.388Z,6.50
2023-04-08T12:52:31.617Z,7.90
2023-04-08T12:55:02.740Z,8.20
2023-04-08T12:57:33.642Z,8.70
2023-04-08T13:00:05.658Z,8.50
2023-04-08T13:02:37.179Z,9.90
2023-04-08T13:05:09.208Z,7.50
2023-04-08T13:07:40.202Z,8.30
2023-04-08T13:10:12.791Z,8.40
2023-04-08T13:12:43.798Z,9.70
2023-04-08T13:15:15.874Z,8.50
2023-04-08T13:17:47.306Z,9.80
2023-04-08T13:20:18.807Z,9.20
2023-04-08T13:22:49.870Z,9.50
2023-04-08T13:25:21.411Z,9.80
2023-04-08T13:27:52.420Z,9.40
2023-04-08T13:30:23.591Z,12.40
2023-04-08T13:32:54.891Z,9.20
2023-04-08T13:35:26.981Z,11.10
2023-04-08T13:37:58.272Z,13.00
2023-04-08T13:40:29.655Z,10.80
2023-04-08T13:43:01.607Z,10.50
2023-04-08T13:45:32.628Z,11.10
2023-04-08T13:48:04.849Z,12.60
2023-04-08T13:50:35.824Z,11.50
2023-04-08T13:53:06.964Z,11.80
2023-04-08T13:55:38.122Z,10.90
2023-04-08T13:58:21.216Z,11.30
2023-04-08T14:00:55.095Z,12.20
2023-04-08T14:03:26.534Z,13.10
2023-04-08T14:06:00.360Z,12.20
2023-04-08T14:08:33.216Z,14.40
2023-04-08T14:11:04.474Z,11.70
2023-04-08T14:13:35.200Z,11.50
2023-04-08T14:16:06.650Z,11.60
2023-04-08T14:18:37.794Z,10.50
2023-04-08T14:21:09.136Z,12.10
2023-04-08T14:23:40.563Z,10.50
2023-04-08T14:26:11.719Z,11.70
2023-04-08T14:28:42.821Z,12.10
2023-04-08T14:31:14.364Z,12.30
2023-04-08T14:33:45.753Z,12.00
2023-04-08T14:36:17.883Z,12.50
2023-04-08T14:38:49.062Z,14.80
2023-04-08T14:41:21.342Z,11.30
2023-04-08T14:43:52.378Z,11.70
2023-04-08T14:46:24.868Z,11.20
2023-04-08T14:48:58.861Z,11.80
2023-04-08T14:51:30.273Z,12.80
2023-04-08T14:54:02.125Z,11.50
2023-04-08T14:56:34.094Z,10.50
2023-04-08T14:59:06.096Z,11.30
2023-04-08T15:01:37.222Z,9.30
2023-04-08T15:04:09.022Z,8.70
2023-04-08T15:06:40.660Z,12.20
2023-04-08T15:09:12.170Z,10.00
2023-04-08T15:11:43.340Z,11.50
2023-04-08T15:14:14.403Z,11.10
2023-04-08T15:16:45.333Z,11.00
2023-04-08T15:19:18.603Z,12.80
2023-04-08T15:21:49.969Z,12.00
2023-04-08T15:24:21.126Z,13.20
2023-04-08T15:26:52.386Z,9.40
2023-04-08T15:29:25.992Z,13.20
2023-04-08T15:31:57.647Z,8.70
2023-04-08T15:34:28.715Z,10.60
2023-04-08T15:36:59.665Z,8.50
2023-04-08T15:39:31.635Z,10.60
2023-04-08T15:42:02.896Z,9.00
2023-04-08T15:44:35.702Z,10.90
2023-04-08T15:47:08.174Z,12.20
2023-04-08T15:49:40.344Z,11.00
2023-04-08T15:52:12.401Z,10.90
2023-04-08T15:54:43.571Z,11.30
2023-04-08T15:57:16.332Z,12.70
2023-04-08T15:59:47.873Z,12.50
2023-04-08T16:02:19.026Z,15.40
2023-04-08T16:04:50.467Z,12.50
2023-04-08T16:07:21.755Z,12.20
2023-04-08T16:09:52.950Z,10.80
2023-04-08T16:12:25.542Z,15.70
2023-04-08T16:14:56.775Z,10.00
2023-04-08T16:17:28.986Z,11.90
2023-04-08T16:20:00.609Z,7.70
2023-04-08T16:22:31.491Z,10.00
2023-04-08T16:25:02.879Z,10.20
2023-04-08T16:27:34.298Z,8.50
2023-04-08T16:30:06.338Z,8.70
2023-04-08T16:32:37.752Z,11.30
2023-04-08T16:35:10.746Z,9.00
2023-04-08T16:37:41.969Z,7.00
2023-04-08T16:40:14.676Z,7.50
2023-04-08T16:42:46.283Z,9.70
2023-04-08T16:45:18.609Z,9.80
2023-04-08T16:47:50.649Z,7.60
2023-04-08T16:50:22.222Z,8.60
2023-04-08T16:52:53.753Z,8.10
2023-04-08T16:55:24.974Z,7.50
2023-04-08T16:57:56.174Z,8.20
2023-04-08T17:00:27.606Z,8.60
2023-04-08T17:02:59.721Z,8.90
2023-04-08T17:05:31.036Z,7.40
2023-04-08T17:08:02.241Z,8.20
2023-04-08T17:10:33.450Z,9.90
2023-04-08T17:13:05.465Z,8.70
2023-04-08T17:15:38.105Z,8.60
2023-04-08T17:18:09.288Z,9.20
2023-04-08T17:20:40.628Z,9.70
2023-04-08T17:23:12.114Z,10.50
2023-04-08T17:25:43.398Z,10.50
2023-04-08T17:28:14.956Z,10.40
2023-04-08T17:30:46.329Z,14.20
2023-04-08T17:33:17.559Z,10.70
2023-04-08T17:35:48.725Z,10.30
2023-04-08T17:38:20.213Z,10.80
2023-04-08T17:40:51.957Z,10.10
2023-04-08T17:43:23.057Z,11.60
2023-04-08T17:45:54.446Z,9.60
2023-04-08T17:48:25.815Z,10.20
2023-04-08T17:51:04.012Z,11.40
2023-04-08T17:53:35.807Z,9.70
2023-04-08T17:56:07.550Z,10.80
2023-04-08T17:58:39.076Z,10.90
2023-04-08T18:01:10.385Z,9.70
2023-04-08T18:03:42.424Z,9.70
2023-04-08T18:06:13.777Z,8.90
2023-04-08T18:08:45.170Z,9.80
2023-04-08T18:11:16.371Z,8.40
2023-04-08T18:13:48.894Z,11.50
2023-04-08T18:16:21.472Z,8.90
2023-04-08T18:18:52.755Z,8.70
2023-04-08T18:21:25.825Z,9.60
2023-04-08T18:23:56.839Z,11.10
2023-04-08T18:26:28.424Z,9.90
2023-04-08T18:28:59.621Z,11.40
2023-04-08T18:31:31.234Z,10.80
2023-04-08T18:34:02.512Z,10.20
2023-04-08T18:36:33.759Z,10.10
2023-04-08T18:39:06.160Z,10.60
2023-04-08T18:41:37.330Z,8.50
2023-04-08T18:44:08.775Z,9.00
2023-04-08T18:46:40.249Z,9.60
2023-04-08T18:49:11.968Z,8.20
2023-04-08T18:51:58.987Z,9.00
2023-04-08T18:54:33.076Z,8.90
2023-04-08T18:57:04.565Z,11.50
2023-04-08T18:59:36.008Z,10.40
2023-04-08T19:02:08.334Z,10.10
2023-04-08T19:04:40.105Z,9.60
2023-04-08T19:07:12.036Z,9.30
2023-04-08T19:09:43.265Z,11.20
2023-04-08T19:12:15.057Z,12.20
2023-04-08T19:14:46.438Z,10.30
2023-04-08T19:17:17.451Z,12.20
2023-04-08T19:19:48.927Z,9.00
2023-04-08T19:22:20.814Z,8.90
2023-04-08T19:24:54.417Z,8.80
2023-04-08T19:27:28.019Z,10.30
2023-04-08T19:29:59.486Z,9.20
2023-04-08T19:32:30.737Z,8.50
2023-04-08T19:35:02.424Z,8.20
2023-04-08T19:37:33.952Z,7.50
2023-04-08T19:40:06.080Z,8.00
2023-04-08T19:42:37.461Z,8.70
2023-04-08T19:45:11.178Z,9.70
2023-04-08T19:47:44.050Z,7.40
2023-04-08T19:50:15.752Z,8.60
2023-04-08T19:52:47.274Z,8.60
2023-04-08T19:55:18.675Z,10.20
2023-04-08T19:57:50.040Z,8.50
2023-04-08T20:00:21.445Z,8.80
2023-04-08T20:02:53.136Z,9.90
2023-04-08T20:05:24.771Z,11.20
2023-04-08T20:07:55.850Z,9.80
2023-04-08T20:10:27.210Z,10.20
2023-04-08T20:12:58.463Z,12.20
2023-04-08T20:15:29.506Z,10.50
2023-04-08T20:18:00.810Z,8.80
2023-04-08T20:20:32.318Z,8.50
2023-04-08T20:23:04.025Z,9.70
2023-04-08T20:25:36.040Z,8.20
2023-04-08T20:28:07.450Z,8.40
2023-04-08T20:30:39.471Z,8.10
2023-04-08T20:33:10.693Z,9.30
2023-04-08T20:35:42.058Z,9.10
2023-04-08T20:38:13.339Z,9.50
2023-04-08T20:40:46.432Z,8.90
2023-04-08T20:43:17.390Z,8.10
2023-04-08T20:45:48.646Z,9.10
2023-04-08T20:48:20.205Z,9.20
2023-04-08T20:50:52.527Z,8.70
2023-04-08T20:53:23.903Z,9.70
2023-04-08T20:55:55.260Z,7.30
2023-04-08T20:58:26.614Z,8.00
2023-04-08T21:01:00.225Z,7.60
2023-04-08T21:03:31.740Z,7.10
2023-04-08T21:06:03.174Z,7.00
2023-04-08T21:08:34.986Z,8.00
2023-04-08T21:11:06.100Z,8.70
2023-04-08T21:13:37.457Z,7.50
2023-04-08T21:16:09.326Z,6.70
2023-04-08T21:18:42.009Z,7.70
2023-04-08T21:21:14.172Z,7.20
2023-04-08T21:23:45.908Z,7.70
2023-04-08T21:26:17.458Z,7.00
2023-04-08T21:28:50.235Z,9.20
2023-04-08T21:31:21.282Z,7.80
2023-04-08T21:33:52.280Z,10.20
2023-04-08T21:36:23.923Z,8.80
2023-04-08T21:38:55.463Z,8.10
2023-04-08T21:41:28.985Z,7.10
2023-04-08T21:44:01.439Z,7.00
2023-04-08T21:46:32.408Z,8.70
2023-04-08T21:49:03.727Z,9.50
2023-04-08T21:51:35.350Z,8.70
2023-04-08T21:54:06.452Z,8.20
2023-04-08T21:56:37.805Z,9.10
2023-04-08T21:59:09.244Z,8.40
2023-04-08T22:01:40.442Z,8.10
2023-04-08T22:04:12.170Z,9.50
2023-04-08T22:06:43.543Z,7.60
2023-04-08T22:09:15.756Z,7.50
2023-04-08T22:11:47.229Z,7.70
2023-04-08T22:14:18.507Z,8.10
2023-04-08T22:16:49.668Z,7.50
2023-04-08T22:19:21.334Z,7.80
2023-04-08T22:21:52.575Z,7.50
2023-04-08T22:24:24.161Z,7.90
2023-04-08T22:26:57.814Z,8.20
2023-04-08T22:29:29.184Z,7.70
2023-04-08T22:32:00.447Z,8.90
2023-04-08T22:34:31.985Z,8.90
2023-04-08T22:37:03.282Z,8.10
2023-04-08T22:39:34.781Z,7.30
2023-04-08T22:42:05.998Z,7.70
2023-04-08T22:44:37.589Z,8.20
2023-04-08T22:47:08.923Z,7.70
2023-04-08T22:49:42.798Z,7.40
2023-04-08T22:52:13.986Z,10.00
2023-04-08T22:54:45.703Z,7.50
2023-04-08T22:57:16.853Z,7.10
2023-04-08T22:59:48.257Z,7.70
2023-04-08T23:02:19.222Z,7.60
2023-04-08T23:04:54.123Z,7.50
2023-04-08T23:07:25.417Z,7.90
2023-04-08T23:09:57.132Z,8.20
2023-04-08T23:12:28.280Z,6.70
2023-04-08T23:14:59.698Z,8.50
2023-04-08T23:17:30.981Z,6.90
2023-04-08T23:20:02.378Z,6.20
2023-04-08T23:22:34.217Z,6.90
2023-04-08T23:25:06.227Z,6.80
2023-04-08T23:27:39.515Z,7.80
2023-04-08T23:30:12.994Z,6.60
2023-04-08T23:32:44.230Z,8.30
2023-04-08T23:35:16.531Z,5.60
2023-04-08T23:37:47.740Z,6.10
2023-04-08T23:40:19.070Z,6.90
2023-04-08T23:42:50.240Z,6.00
2023-04-08T23:45:24.035Z,6.60
2023-04-08T23:47:55.149Z,7.60
2023-04-08T23:50:26.509Z,7.40
2023-04-08T23:52:57.676Z,7.50
2023-04-08T23:55:28.707Z,7.00
2023-04-08T23:57:59.912Z,6.70
